sensor_id;sensor_type;location;lat;lon;timestamp;pressure;altitude;pressure_sealevel;temperature;humidity
64095;BME280;50353;51.420;5.682;2023-08-08T00:01:05;101211.22;;;15.64;77.64
64095;BME280;50353;51.420;5.682;2023-08-08T00:03:30;101205.84;;;15.28;78.11
64095;BME280;50353;51.420;5.682;2023-08-08T00:05:56;101205.53;;;15.44;78.19
64095;BME280;50353;51.420;5.682;2023-08-08T00:08:21;101196.09;;;15.40;78.50
64095;BME280;50353;51.420;5.682;2023-08-08T00:10:46;101197.47;;;15.21;78.95
64095;BME280;50353;51.420;5.682;2023-08-08T00:13:12;101203.09;;;15.65;76.98
64095;BME280;50353;51.420;5.682;2023-08-08T00:15:37;101201.53;;;15.74;77.08
64095;BME280;50353;51.420;5.682;2023-08-08T00:18:03;101195.69;;;15.33;78.18
64095;BME280;50353;51.420;5.682;2023-08-08T00:20:28;101202.06;;;15.19;79.28
64095;BME280;50353;51.420;5.682;2023-08-08T00:22:53;101210.59;;;15.36;78.91
64095;BME280;50353;51.420;5.682;2023-08-08T00:25:19;101195.38;;;15.38;77.80
64095;BME280;50353;51.420;5.682;2023-08-08T00:27:44;101204.59;;;15.45;77.55
64095;BME280;50353;51.420;5.682;2023-08-08T00:30:11;101202.50;;;15.37;78.70
64095;BME280;50353;51.420;5.682;2023-08-08T00:32:38;101203.16;;;15.52;78.58
64095;BME280;50353;51.420;5.682;2023-08-08T00:35:03;101199.66;;;15.52;78.39
64095;BME280;50353;51.420;5.682;2023-08-08T00:37:29;101208.91;;;15.70;77.82
64095;BME280;50353;51.420;5.682;2023-08-08T00:39:57;101200.16;;;15.57;78.40
64095;BME280;50353;51.420;5.682;2023-08-08T00:42:22;101197.00;;;15.63;77.67
64095;BME280;50353;51.420;5.682;2023-08-08T00:44:48;101205.97;;;15.62;77.94
64095;BME280;50353;51.420;5.682;2023-08-08T00:47:13;101190.44;;;15.80;77.95
64095;BME280;50353;51.420;5.682;2023-08-08T00:49:39;101195.78;;;15.80;77.17
64095;BME280;50353;51.420;5.682;2023-08-08T00:52:06;101197.88;;;16.22;75.53
64095;BME280;50353;51.420;5.682;2023-08-08T00:54:32;101198.94;;;15.97;76.50
64095;BME280;50353;51.420;5.682;2023-08-08T00:56:57;101195.66;;;15.82;77.69
64095;BME280;50353;51.420;5.682;2023-08-08T00:59:23;101181.31;;;15.47;78.96
64095;BME280;50353;51.420;5.682;2023-08-08T01:01:48;101193.44;;;15.51;79.42
64095;BME280;50353;51.420;5.682;2023-08-08T01:04:14;101177.16;;;15.67;78.25
64095;BME280;50353;51.420;5.682;2023-08-08T01:06:56;101192.69;;;15.38;79.70
64095;BME280;50353;51.420;5.682;2023-08-08T01:09:28;101200.88;;;15.95;77.69
64095;BME280;50353;51.420;5.682;2023-08-08T01:12:01;101198.94;;;15.97;77.79
64095;BME280;50353;51.420;5.682;2023-08-08T01:14:29;101188.28;;;16.08;77.48
64095;BME280;50353;51.420;5.682;2023-08-08T01:16:56;101179.06;;;16.01;76.68
64095;BME280;50353;51.420;5.682;2023-08-08T01:19:27;101184.16;;;15.93;77.88
64095;BME280;50353;51.420;5.682;2023-08-08T01:21:59;101180.56;;;15.69;79.41
64095;BME280;50353;51.420;5.682;2023-08-08T01:24:26;101169.16;;;15.79;79.25
64095;BME280;50353;51.420;5.682;2023-08-08T01:26:54;101177.88;;;16.05;78.06
64095;BME280;50353;51.420;5.682;2023-08-08T01:29:20;101190.00;;;16.09;76.57
64095;BME280;50353;51.420;5.682;2023-08-08T01:31:46;101183.34;;;16.37;76.13
64095;BME280;50353;51.420;5.682;2023-08-08T01:34:11;101174.97;;;16.31;75.64
64095;BME280;50353;51.420;5.682;2023-08-08T01:36:44;101192.53;;;16.45;75.75
64095;BME280;50353;51.420;5.682;2023-08-08T01:39:14;101196.31;;;16.31;76.80
64095;BME280;50353;51.420;5.682;2023-08-08T01:41:42;101181.00;;;15.99;78.08
64095;BME280;50353;51.420;5.682;2023-08-08T01:44:10;101178.34;;;15.99;78.08
64095;BME280;50353;51.420;5.682;2023-08-08T01:46:36;101181.56;;;15.80;79.74
64095;BME280;50353;51.420;5.682;2023-08-08T01:49:03;101190.22;;;15.95;78.79
64095;BME280;50353;51.420;5.682;2023-08-08T01:51:29;101174.69;;;15.88;78.84
64095;BME280;50353;51.420;5.682;2023-08-08T01:53:54;101183.91;;;16.07;78.76
64095;BME280;50353;51.420;5.682;2023-08-08T01:56:22;101184.41;;;16.23;77.55
64095;BME280;50353;51.420;5.682;2023-08-08T01:58:48;101160.41;;;16.01;78.52
64095;BME280;50353;51.420;5.682;2023-08-08T02:01:13;101173.63;;;15.91;79.22
64095;BME280;50353;51.420;5.682;2023-08-08T02:03:39;101177.88;;;16.05;78.72
64095;BME280;50353;51.420;5.682;2023-08-08T02:06:04;101157.13;;;16.09;77.63
64095;BME280;50353;51.420;5.682;2023-08-08T02:08:29;101159.19;;;16.05;78.32
64095;BME280;50353;51.420;5.682;2023-08-08T02:10:55;101164.88;;;16.34;77.59
64095;BME280;50353;51.420;5.682;2023-08-08T02:13:20;101162.00;;;16.37;77.48
64095;BME280;50353;51.420;5.682;2023-08-08T02:15:46;101162.59;;;16.18;78.27
64095;BME280;50353;51.420;5.682;2023-08-08T02:18:11;101157.03;;;16.21;77.00
64095;BME280;50353;51.420;5.682;2023-08-08T02:20:37;101149.38;;;16.17;78.58
64095;BME280;50353;51.420;5.682;2023-08-08T02:23:02;101151.06;;;16.07;79.51
64095;BME280;50353;51.420;5.682;2023-08-08T02:25:30;101153.63;;;16.08;79.17
64095;BME280;50353;51.420;5.682;2023-08-08T02:27:58;101130.97;;;16.02;79.68
64095;BME280;50353;51.420;5.682;2023-08-08T02:30:23;101143.38;;;15.68;81.43
64095;BME280;50353;51.420;5.682;2023-08-08T02:32:49;101143.66;;;15.87;80.58
64095;BME280;50353;51.420;5.682;2023-08-08T02:35:14;101147.78;;;15.92;79.32
64095;BME280;50353;51.420;5.682;2023-08-08T02:37:42;101140.47;;;15.71;81.18
64095;BME280;50353;51.420;5.682;2023-08-08T02:40:11;101133.97;;;15.98;79.73
64095;BME280;50353;51.420;5.682;2023-08-08T02:42:36;101148.16;;;16.10;78.56
64095;BME280;50353;51.420;5.682;2023-08-08T02:45:02;101139.91;;;16.01;79.70
64095;BME280;50353;51.420;5.682;2023-08-08T02:47:27;101130.59;;;15.84;80.98
64095;BME280;50353;51.420;5.682;2023-08-08T02:49:56;101124.44;;;15.13;84.65
64095;BME280;50353;51.420;5.682;2023-08-08T02:52:21;101120.19;;;15.10;85.39
64095;BME280;50353;51.420;5.682;2023-08-08T02:54:46;101133.28;;;15.49;83.44
64095;BME280;50353;51.420;5.682;2023-08-08T02:57:12;101126.84;;;15.51;82.25
64095;BME280;50353;51.420;5.682;2023-08-08T02:59:37;101121.59;;;15.27;84.88
64095;BME280;50353;51.420;5.682;2023-08-08T03:02:03;101128.00;;;15.25;86.05
64095;BME280;50353;51.420;5.682;2023-08-08T03:04:29;101123.50;;;15.25;86.11
64095;BME280;50353;51.420;5.682;2023-08-08T03:06:54;101123.66;;;15.35;nan
64095;BME280;50353;51.420;5.682;2023-08-08T03:09:20;101124.34;;;15.61;84.20
64095;BME280;50353;51.420;5.682;2023-08-08T03:11:45;101117.88;;;15.41;85.69
64095;BME280;50353;51.420;5.682;2023-08-08T03:14:11;101115.47;;;15.61;83.63
64095;BME280;50353;51.420;5.682;2023-08-08T03:16:36;101113.78;;;15.60;83.71
64095;BME280;50353;51.420;5.682;2023-08-08T03:19:02;101125.81;;;15.65;84.09
64095;BME280;50353;51.420;5.682;2023-08-08T03:21:27;101117.25;;;15.37;85.54
64095;BME280;50353;51.420;5.682;2023-08-08T03:23:53;101114.25;;;15.53;85.36
64095;BME280;50353;51.420;5.682;2023-08-08T03:26:19;101109.25;;;15.37;86.74
64095;BME280;50353;51.420;5.682;2023-08-08T03:28:44;101110.44;;;15.33;86.40
64095;BME280;50353;51.420;5.682;2023-08-08T03:31:13;101118.78;;;15.64;84.94
64095;BME280;50353;51.420;5.682;2023-08-08T03:33:38;101116.81;;;15.66;85.26
64095;BME280;50353;51.420;5.682;2023-08-08T03:36:09;101107.94;;;15.43;86.07
64095;BME280;50353;51.420;5.682;2023-08-08T03:38:34;101110.78;;;15.76;84.76
64095;BME280;50353;51.420;5.682;2023-08-08T03:41:00;101110.84;;;15.40;87.44
64095;BME280;50353;51.420;5.682;2023-08-08T03:43:26;101120.16;;;15.34;86.91
64095;BME280;50353;51.420;5.682;2023-08-08T03:45:53;101115.84;;;15.56;86.86
64095;BME280;50353;51.420;5.682;2023-08-08T03:48:19;101109.66;;;15.55;87.10
64095;BME280;50353;51.420;5.682;2023-08-08T03:50:44;101101.94;;;15.64;85.83
64095;BME280;50353;51.420;5.682;2023-08-08T03:53:11;101112.63;;;15.86;85.53
64095;BME280;50353;51.420;5.682;2023-08-08T03:55:37;101108.94;;;15.65;86.97
64095;BME280;50353;51.420;5.682;2023-08-08T03:58:02;101100.81;;;15.66;86.22
64095;BME280;50353;51.420;5.682;2023-08-08T04:00:28;101105.78;;;15.48;87.43
64095;BME280;50353;51.420;5.682;2023-08-08T04:02:53;101099.38;;;15.62;85.76
64095;BME280;50353;51.420;5.682;2023-08-08T04:05:18;101111.72;;;15.52;87.02
64095;BME280;50353;51.420;5.682;2023-08-08T04:07:44;101097.63;;;15.27;88.95
64095;BME280;50353;51.420;5.682;2023-08-08T04:10:10;101098.72;;;15.36;87.88
64095;BME280;50353;51.420;5.682;2023-08-08T04:12:36;101089.53;;;15.40;86.62
64095;BME280;50353;51.420;5.682;2023-08-08T04:15:01;101101.19;;;15.50;87.16
64095;BME280;50353;51.420;5.682;2023-08-08T04:17:26;101100.25;;;15.63;85.54
64095;BME280;50353;51.420;5.682;2023-08-08T04:19:52;101107.03;;;15.67;85.35
64095;BME280;50353;51.420;5.682;2023-08-08T04:22:17;101102.13;;;15.38;87.06
64095;BME280;50353;51.420;5.682;2023-08-08T04:24:43;101101.31;;;15.13;88.39
64095;BME280;50353;51.420;5.682;2023-08-08T04:27:08;101104.16;;;15.23;87.56
64095;BME280;50353;51.420;5.682;2023-08-08T04:29:34;101106.72;;;15.36;87.40
64095;BME280;50353;51.420;5.682;2023-08-08T04:31:59;101095.03;;;15.61;85.38
64095;BME280;50353;51.420;5.682;2023-08-08T04:34:24;101107.22;;;15.52;86.55
64095;BME280;50353;51.420;5.682;2023-08-08T04:36:50;101082.44;;;15.16;87.47
64095;BME280;50353;51.420;5.682;2023-08-08T04:39:18;101087.88;;;15.50;86.67
64095;BME280;50353;51.420;5.682;2023-08-08T04:41:43;101102.38;;;15.46;85.83
64095;BME280;50353;51.420;5.682;2023-08-08T04:44:11;101099.78;;;15.22;87.24
64095;BME280;50353;51.420;5.682;2023-08-08T04:46:37;101092.25;;;15.16;88.21
64095;BME280;50353;51.420;5.682;2023-08-08T04:49:02;101103.34;;;15.34;87.52
64095;BME280;50353;51.420;5.682;2023-08-08T04:51:28;101109.34;;;14.89;89.72
64095;BME280;50353;51.420;5.682;2023-08-08T04:53:53;101103.53;;;15.31;86.55
64095;BME280;50353;51.420;5.682;2023-08-08T04:56:18;101107.47;;;15.38;86.53
64095;BME280;50353;51.420;5.682;2023-08-08T04:58:44;101113.69;;;15.61;84.81
64095;BME280;50353;51.420;5.682;2023-08-08T05:01:10;101109.06;;;15.63;85.44
64095;BME280;50353;51.420;5.682;2023-08-08T05:03:39;101096.31;;;15.44;86.09
64095;BME280;50353;51.420;5.682;2023-08-08T05:06:08;101091.34;;;15.40;86.39
64095;BME280;50353;51.420;5.682;2023-08-08T05:08:33;101108.44;;;15.48;86.66
64095;BME280;50353;51.420;5.682;2023-08-08T05:10:58;101110.38;;;15.46;86.79
64095;BME280;50353;51.420;5.682;2023-08-08T05:13:24;101099.78;;;15.22;87.62
64095;BME280;50353;51.420;5.682;2023-08-08T05:15:50;101112.31;;;15.44;87.69
64095;BME280;50353;51.420;5.682;2023-08-08T05:18:15;101101.44;;;15.59;86.76
64095;BME280;50353;51.420;5.682;2023-08-08T05:20:41;101101.44;;;15.59;85.60
64095;BME280;50353;51.420;5.682;2023-08-08T05:23:06;101112.78;;;15.38;87.10
64095;BME280;50353;51.420;5.682;2023-08-08T05:25:32;101120.16;;;15.46;87.58
64095;BME280;50353;51.420;5.682;2023-08-08T05:28:00;101119.78;;;15.39;87.20
64095;BME280;50353;51.420;5.682;2023-08-08T05:30:25;101122.78;;;15.70;85.82
64095;BME280;50353;51.420;5.682;2023-08-08T05:32:51;101111.22;;;15.58;86.40
64095;BME280;50353;51.420;5.682;2023-08-08T05:35:16;101117.69;;;15.78;84.66
64095;BME280;50353;51.420;5.682;2023-08-08T05:37:41;101110.47;;;15.80;84.77
64095;BME280;50353;51.420;5.682;2023-08-08T05:40:07;101102.91;;;15.74;85.54
64095;BME280;50353;51.420;5.682;2023-08-08T05:42:33;101105.00;;;15.93;83.84
64095;BME280;50353;51.420;5.682;2023-08-08T05:45:01;101112.28;;;16.02;84.46
64095;BME280;50353;51.420;5.682;2023-08-08T05:47:29;101111.09;;;15.95;84.83
64095;BME280;50353;51.420;5.682;2023-08-08T05:49:54;101114.22;;;16.12;84.15
64095;BME280;50353;51.420;5.682;2023-08-08T05:52:20;101121.72;;;16.18;84.25
64095;BME280;50353;51.420;5.682;2023-08-08T05:54:46;101117.25;;;16.30;83.69
64095;BME280;50353;51.420;5.682;2023-08-08T05:57:11;101116.75;;;16.36;82.26
64095;BME280;50353;51.420;5.682;2023-08-08T05:59:36;101119.81;;;16.20;84.39
64095;BME280;50353;51.420;5.682;2023-08-08T06:02:02;101116.50;;;16.28;83.60
64095;BME280;50353;51.420;5.682;2023-08-08T06:04:27;101104.53;;;15.99;85.30
64095;BME280;50353;51.420;5.682;2023-08-08T06:06:53;101121.38;;;16.34;83.62
64095;BME280;50353;51.420;5.682;2023-08-08T06:09:18;101107.69;;;16.71;81.12
64095;BME280;50353;51.420;5.682;2023-08-08T06:11:44;101112.19;;;16.70;81.01
64095;BME280;50353;51.420;5.682;2023-08-08T06:14:09;101113.16;;;16.69;81.18
64095;BME280;50353;51.420;5.682;2023-08-08T06:16:35;101113.84;;;16.83;81.38
64095;BME280;50353;51.420;5.682;2023-08-08T06:19:00;101124.56;;;17.15;80.46
64095;BME280;50353;51.420;5.682;2023-08-08T06:21:25;101129.19;;;16.69;81.96
64095;BME280;50353;51.420;5.682;2023-08-08T06:23:51;101126.69;;;17.00;80.28
64095;BME280;50353;51.420;5.682;2023-08-08T06:26:22;101123.53;;;16.51;82.55
64095;BME280;50353;51.420;5.682;2023-08-08T06:28:47;101118.72;;;16.78;82.11
64095;BME280;50353;51.420;5.682;2023-08-08T06:31:13;101123.69;;;16.94;81.53
64095;BME280;50353;51.420;5.682;2023-08-08T06:33:39;101113.91;;;16.71;82.92
64095;BME280;50353;51.420;5.682;2023-08-08T06:36:05;101129.91;;;17.15;80.57
64095;BME280;50353;51.420;5.682;2023-08-08T06:38:37;101129.22;;;17.34;80.17
64095;BME280;50353;51.420;5.682;2023-08-08T06:41:02;101143.03;;;17.61;77.95
64095;BME280;50353;51.420;5.682;2023-08-08T06:43:28;101129.13;;;17.24;80.00
64095;BME280;50353;51.420;5.682;2023-08-08T06:45:54;101116.19;;;17.41;79.30
64095;BME280;50353;51.420;5.682;2023-08-08T06:48:24;101121.91;;;17.57;78.63
64095;BME280;50353;51.420;5.682;2023-08-08T06:50:49;101122.44;;;17.72;75.57
64095;BME280;50353;51.420;5.682;2023-08-08T06:53:15;101147.63;;;18.01;76.24
64095;BME280;50353;51.420;5.682;2023-08-08T06:55:41;101129.25;;;17.65;77.42
64095;BME280;50353;51.420;5.682;2023-08-08T06:58:06;101139.97;;;17.65;79.30
64095;BME280;50353;51.420;5.682;2023-08-08T07:00:35;101125.78;;;18.27;76.08
64095;BME280;50353;51.420;5.682;2023-08-08T07:03:09;101123.72;;;17.78;77.92
64095;BME280;50353;51.420;5.682;2023-08-08T07:05:35;101133.84;;;17.96;77.95
64095;BME280;50353;51.420;5.682;2023-08-08T07:08:00;101134.66;;;17.75;77.87
64095;BME280;50353;51.420;5.682;2023-08-08T07:10:27;101128.34;;;17.76;76.88
64095;BME280;50353;51.420;5.682;2023-08-08T07:12:53;101119.06;;;17.49;78.32
64095;BME280;50353;51.420;5.682;2023-08-08T07:15:19;101119.34;;;17.77;77.78
64095;BME280;50353;51.420;5.682;2023-08-08T07:17:45;101134.41;;;18.30;76.26
64095;BME280;50353;51.420;5.682;2023-08-08T07:20:10;101132.03;;;18.37;75.57
64095;BME280;50353;51.420;5.682;2023-08-08T07:22:39;101120.06;;;18.00;77.14
64095;BME280;50353;51.420;5.682;2023-08-08T07:25:04;101126.66;;;17.96;77.04
64095;BME280;50353;51.420;5.682;2023-08-08T07:27:31;101118.53;;;18.07;76.37
64095;BME280;50353;51.420;5.682;2023-08-08T07:29:56;101121.13;;;18.19;76.01
64095;BME280;50353;51.420;5.682;2023-08-08T07:32:22;101110.16;;;18.32;75.65
64095;BME280;50353;51.420;5.682;2023-08-08T07:34:47;101114.13;;;18.47;75.25
64095;BME280;50353;51.420;5.682;2023-08-08T07:37:19;101115.09;;;18.36;76.01
64095;BME280;50353;51.420;5.682;2023-08-08T07:39:45;101109.03;;;18.24;76.02
64095;BME280;50353;51.420;5.682;2023-08-08T07:42:11;101112.34;;;18.07;76.43
64095;BME280;50353;51.420;5.682;2023-08-08T07:44:36;101115.88;;;18.17;77.73
64095;BME280;50353;51.420;5.682;2023-08-08T07:47:04;101119.09;;;18.42;77.46
64095;BME280;50353;51.420;5.682;2023-08-08T07:49:30;101111.38;;;18.08;76.56
64095;BME280;50353;51.420;5.682;2023-08-08T07:51:58;101101.03;;;18.34;76.39
64095;BME280;50353;51.420;5.682;2023-08-08T07:54:26;101108.38;;;18.42;75.51
64095;BME280;50353;51.420;5.682;2023-08-08T07:56:52;101111.88;;;18.42;76.47
64095;BME280;50353;51.420;5.682;2023-08-08T07:59:17;101113.56;;;18.94;73.32
64095;BME280;50353;51.420;5.682;2023-08-08T08:01:48;101098.75;;;18.90;72.49
64095;BME280;50353;51.420;5.682;2023-08-08T08:04:17;101111.38;;;18.78;73.54
64095;BME280;50353;51.420;5.682;2023-08-08T08:06:42;101122.38;;;18.75;73.38
64095;BME280;50353;51.420;5.682;2023-08-08T08:09:10;101113.06;;;18.69;74.50
64095;BME280;50353;51.420;5.682;2023-08-08T08:11:38;101122.25;;;18.77;74.71
64095;BME280;50353;51.420;5.682;2023-08-08T08:14:05;101134.66;;;18.78;73.49
64095;BME280;50353;51.420;5.682;2023-08-08T08:16:31;101121.66;;;18.73;72.92
64095;BME280;50353;51.420;5.682;2023-08-08T08:18:59;101123.22;;;18.66;73.91
64095;BME280;50353;51.420;5.682;2023-08-08T08:21:24;101123.34;;;18.64;73.34
64095;BME280;50353;51.420;5.682;2023-08-08T08:23:53;101111.75;;;18.54;73.34
64095;BME280;50353;51.420;5.682;2023-08-08T08:26:18;101128.56;;;18.56;73.59
64095;BME280;50353;51.420;5.682;2023-08-08T08:28:43;101119.88;;;18.23;73.35
64095;BME280;50353;51.420;5.682;2023-08-08T08:31:08;101134.19;;;18.63;72.92
64095;BME280;50353;51.420;5.682;2023-08-08T08:33:34;101122.00;;;18.89;70.95
64095;BME280;50353;51.420;5.682;2023-08-08T08:35:59;101131.25;;;18.66;71.77
64095;BME280;50353;51.420;5.682;2023-08-08T08:38:24;101129.69;;;18.73;72.75
64095;BME280;50353;51.420;5.682;2023-08-08T08:40:54;101113.91;;;18.80;72.27
64095;BME280;50353;51.420;5.682;2023-08-08T08:43:21;101128.03;;;18.82;72.39
64095;BME280;50353;51.420;5.682;2023-08-08T08:45:50;101123.66;;;18.71;72.35
64095;BME280;50353;51.420;5.682;2023-08-08T08:48:17;101120.16;;;19.09;70.78
64095;BME280;50353;51.420;5.682;2023-08-08T08:50:47;101117.47;;;18.80;70.09
64095;BME280;50353;51.420;5.682;2023-08-08T08:53:13;101121.00;;;18.90;69.53
64095;BME280;50353;51.420;5.682;2023-08-08T08:55:39;101113.78;;;18.81;70.02
64095;BME280;50353;51.420;5.682;2023-08-08T08:58:05;101122.69;;;19.11;69.54
64095;BME280;50353;51.420;5.682;2023-08-08T09:00:31;101124.13;;;18.96;69.68
64095;BME280;50353;51.420;5.682;2023-08-08T09:02:58;101125.00;;;18.55;70.27
64095;BME280;50353;51.420;5.682;2023-08-08T09:05:25;101126.38;;;18.40;72.66
64095;BME280;50353;51.420;5.682;2023-08-08T09:07:59;101140.09;;;18.66;70.80
64095;BME280;50353;51.420;5.682;2023-08-08T09:10:26;101137.28;;;18.68;70.98
64095;BME280;50353;51.420;5.682;2023-08-08T09:12:53;101145.50;;;18.76;71.67
64095;BME280;50353;51.420;5.682;2023-08-08T09:15:21;101132.50;;;18.71;71.54
64095;BME280;50353;51.420;5.682;2023-08-08T09:17:46;101136.09;;;18.91;71.29
64095;BME280;50353;51.420;5.682;2023-08-08T09:20:18;101137.66;;;19.04;70.75
64095;BME280;50353;51.420;5.682;2023-08-08T09:22:43;101123.41;;;18.94;71.21
64095;BME280;50353;51.420;5.682;2023-08-08T09:25:10;101120.31;;;19.18;69.65
64095;BME280;50353;51.420;5.682;2023-08-08T09:27:35;101129.22;;;19.18;70.04
64095;BME280;50353;51.420;5.682;2023-08-08T09:30:04;101121.00;;;19.10;69.48
64095;BME280;50353;51.420;5.682;2023-08-08T09:32:30;101133.56;;;19.19;69.41
64095;BME280;50353;51.420;5.682;2023-08-08T09:34:57;101129.78;;;19.02;69.34
64095;BME280;50353;51.420;5.682;2023-08-08T09:37:27;101138.25;;;19.07;69.24
64095;BME280;50353;51.420;5.682;2023-08-08T09:39:59;101142.66;;;18.68;69.48
64095;BME280;50353;51.420;5.682;2023-08-08T09:42:31;101143.97;;;18.83;69.92
64095;BME280;50353;51.420;5.682;2023-08-08T09:44:57;101144.34;;;18.79;69.87
64095;BME280;50353;51.420;5.682;2023-08-08T09:47:24;101131.09;;;18.77;70.02
64095;BME280;50353;51.420;5.682;2023-08-08T09:49:50;101138.47;;;18.85;70.64
64095;BME280;50353;51.420;5.682;2023-08-08T09:52:18;101138.16;;;18.78;69.79
64095;BME280;50353;51.420;5.682;2023-08-08T09:54:44;101142.28;;;19.02;69.81
64095;BME280;50353;51.420;5.682;2023-08-08T09:57:10;101135.56;;;19.07;69.58
64095;BME280;50353;51.420;5.682;2023-08-08T09:59:35;101150.94;;;19.35;70.56
64095;BME280;50353;51.420;5.682;2023-08-08T10:02:04;101148.38;;;19.43;67.56
64095;BME280;50353;51.420;5.682;2023-08-08T10:04:30;101125.38;;;19.21;66.28
64095;BME280;50353;51.420;5.682;2023-08-08T10:06:57;101126.66;;;19.17;67.92
64095;BME280;50353;51.420;5.682;2023-08-08T10:09:26;101144.63;;;19.73;65.22
64095;BME280;50353;51.420;5.682;2023-08-08T10:11:51;101136.41;;;19.95;66.42
64095;BME280;50353;51.420;5.682;2023-08-08T10:14:18;101136.91;;;20.46;64.74
64095;BME280;50353;51.420;5.682;2023-08-08T10:16:53;101140.91;;;20.04;66.25
64095;BME280;50353;51.420;5.682;2023-08-08T10:19:21;101131.81;;;20.15;65.21
64095;BME280;50353;51.420;5.682;2023-08-08T10:21:47;101138.75;;;20.45;64.73
64095;BME280;50353;51.420;5.682;2023-08-08T10:24:13;101142.41;;;20.16;63.67
64095;BME280;50353;51.420;5.682;2023-08-08T10:27:00;101148.19;;;19.84;64.34
64095;BME280;50353;51.420;5.682;2023-08-08T10:29:28;101150.00;;;19.83;65.98
64095;BME280;50353;51.420;5.682;2023-08-08T10:32:04;101148.03;;;19.66;65.24
64095;BME280;50353;51.420;5.682;2023-08-08T10:34:37;101147.66;;;19.02;66.40
64095;BME280;50353;51.420;5.682;2023-08-08T10:37:09;101140.34;;;19.04;66.42
64095;BME280;50353;51.420;5.682;2023-08-08T10:39:35;101147.41;;;19.15;67.53
64095;BME280;50353;51.420;5.682;2023-08-08T10:42:03;101134.22;;;19.70;67.54
64095;BME280;50353;51.420;5.682;2023-08-08T10:44:40;101130.31;;;20.02;64.03
64095;BME280;50353;51.420;5.682;2023-08-08T10:47:06;101138.31;;;20.96;64.01
64095;BME280;50353;51.420;5.682;2023-08-08T10:49:32;101135.16;;;20.82;62.45
64095;BME280;50353;51.420;5.682;2023-08-08T10:52:02;101129.06;;;20.80;60.15
64095;BME280;50353;51.420;5.682;2023-08-08T10:54:31;101132.63;;;20.99;60.96
64095;BME280;50353;51.420;5.682;2023-08-08T10:57:01;101128.28;;;21.42;58.79
64095;BME280;50353;51.420;5.682;2023-08-08T10:59:36;101143.22;;;21.00;59.52
64095;BME280;50353;51.420;5.682;2023-08-08T11:02:04;101133.56;;;20.34;58.95
64095;BME280;50353;51.420;5.682;2023-08-08T11:04:30;101132.16;;;20.30;62.81
64095;BME280;50353;51.420;5.682;2023-08-08T11:06:57;101137.88;;;19.69;60.73
64095;BME280;50353;51.420;5.682;2023-08-08T11:09:23;101130.41;;;19.83;63.58
64095;BME280;50353;51.420;5.682;2023-08-08T11:11:49;101138.09;;;19.09;62.22
64095;BME280;50353;51.420;5.682;2023-08-08T11:14:19;101134.94;;;19.63;65.02
64095;BME280;50353;51.420;5.682;2023-08-08T11:16:47;101133.34;;;19.70;63.45
64095;BME280;50353;51.420;5.682;2023-08-08T11:19:13;101128.03;;;19.50;62.44
64095;BME280;50353;51.420;5.682;2023-08-08T11:21:42;101135.75;;;19.83;63.37
64095;BME280;50353;51.420;5.682;2023-08-08T11:24:08;101130.72;;;20.07;62.66
64095;BME280;50353;51.420;5.682;2023-08-08T11:26:35;101135.31;;;20.25;61.98
64095;BME280;50353;51.420;5.682;2023-08-08T11:29:02;101125.81;;;20.31;61.00
64095;BME280;50353;51.420;5.682;2023-08-08T11:31:28;101125.00;;;20.76;58.46
64095;BME280;50353;51.420;5.682;2023-08-08T11:33:55;101120.25;;;21.06;59.49
64095;BME280;50353;51.420;5.682;2023-08-08T11:36:22;101113.53;;;21.46;56.72
64095;BME280;50353;51.420;5.682;2023-08-08T11:38:49;101110.47;;;21.05;58.60
64095;BME280;50353;51.420;5.682;2023-08-08T11:41:16;101101.91;;;21.45;57.49
64095;BME280;50353;51.420;5.682;2023-08-08T11:43:43;101104.34;;;21.13;57.53
64095;BME280;50353;51.420;5.682;2023-08-08T11:46:12;101107.66;;;20.88;58.27
64095;BME280;50353;51.420;5.682;2023-08-08T11:48:38;101108.66;;;20.41;59.69
64095;BME280;50353;51.420;5.682;2023-08-08T11:51:04;101113.53;;;20.28;61.64
64095;BME280;50353;51.420;5.682;2023-08-08T11:53:30;101117.34;;;20.25;59.63
64095;BME280;50353;51.420;5.682;2023-08-08T11:55:56;101127.25;;;20.25;58.36
64095;BME280;50353;51.420;5.682;2023-08-08T11:58:29;101124.38;;;20.36;61.18
64095;BME280;50353;51.420;5.682;2023-08-08T12:00:56;101114.56;;;20.17;60.75
64095;BME280;50353;51.420;5.682;2023-08-08T12:03:25;101121.19;;;20.51;59.14
64095;BME280;50353;51.420;5.682;2023-08-08T12:05:51;101117.56;;;20.60;57.32
64095;BME280;50353;51.420;5.682;2023-08-08T12:08:23;101119.72;;;20.29;60.43
64095;BME280;50353;51.420;5.682;2023-08-08T12:10:52;101119.47;;;20.22;59.76
64095;BME280;50353;51.420;5.682;2023-08-08T12:13:23;101122.00;;;19.96;61.53
64095;BME280;50353;51.420;5.682;2023-08-08T12:15:52;101131.03;;;20.32;60.76
64095;BME280;50353;51.420;5.682;2023-08-08T12:18:19;101127.22;;;20.35;58.97
64095;BME280;50353;51.420;5.682;2023-08-08T12:20:45;101112.91;;;20.62;57.69
64095;BME280;50353;51.420;5.682;2023-08-08T12:23:10;101116.00;;;21.21;56.44
64095;BME280;50353;51.420;5.682;2023-08-08T12:25:37;101097.84;;;21.41;54.44
64095;BME280;50353;51.420;5.682;2023-08-08T12:28:02;101100.50;;;21.59;54.61
64095;BME280;50353;51.420;5.682;2023-08-08T12:30:28;101104.16;;;21.76;55.43
64095;BME280;50353;51.420;5.682;2023-08-08T12:32:53;101104.25;;;21.93;53.80
64095;BME280;50353;51.420;5.682;2023-08-08T12:35:19;101095.63;;;21.55;57.96
64095;BME280;50353;51.420;5.682;2023-08-08T12:37:46;101095.97;;;20.98;56.11
64095;BME280;50353;51.420;5.682;2023-08-08T12:40:12;101109.06;;;21.10;55.78
64095;BME280;50353;51.420;5.682;2023-08-08T12:42:37;101111.81;;;21.45;55.48
64095;BME280;50353;51.420;5.682;2023-08-08T12:45:06;101108.88;;;21.12;55.29
64095;BME280;50353;51.420;5.682;2023-08-08T12:47:31;101105.19;;;20.77;55.57